Zvezda Murmana — UEDV — position and weather

sailwx.info

Track history (hours):
 
Tides and Currents Weather Stations Pressure Air Temp Water Temp Dewpoint Dewpoint Depression Visibility Wind Speed Wind Dir Waves Ship Positions

Zvezda Murmana

Last reported at 2017-Oct-06 01:21 UTC. Time now 2017-Oct-22 10:30 UTC.
Position N 69°20' E 014°15'.
Warning: this ship's position is 16 days out of date.

Length 67 m; draft 6.5 m.

Type: Fishing. MMSI: 273352230.

Date/timePositionNaut miles runAvg speedWind from/ knotsBaromVisibWave heightAir tempDewpointWater temp
2017-Oct-06 01:21N 69°20' E 014°15'410.7
2017-Oct-06 01:00N 69°22' E 014°23'510.8
2017-Oct-06 00:30N 69°26' E 014°35'510.7
2017-Oct-06 00:00N 69°29' E 014°46'10910.4
2017-Oct-05 13:30N 70°38' E 018°55'510.7
2017-Oct-05 13:00N 70°40' E 019°10'10310.6
2017-Oct-05 03:14N 71°21' E 023°60'310.4
2017-Oct-05 03:00N 71°22' E 024°07'510.1
2017-Oct-05 02:30N 71°23' E 024°23'510.1
2017-Oct-05 02:00N 71°24' E 024°39'510.0
2017-Oct-05 01:30N 71°24' E 024°54'5 9.4
2017-Oct-05 01:00N 71°25' E 025°09'5 8.9
2017-Oct-05 00:29N 71°26' E 025°23'5 9.5
2017-Oct-05 00:00N 71°27' E 025°37'5 9.9
2017-Oct-04 23:30N 71°27' E 025°53'5 9.9
2017-Oct-04 23:00N 71°26' E 026°08'5 9.8
2017-Oct-04 22:30N 71°26' E 026°24'510.5
2017-Oct-04 21:59N 71°25' E 026°40'611.3
2017-Oct-04 21:30N 71°25' E 026°57'611.4
2017-Oct-04 21:00N 71°24' E 027°15'611.4
2017-Oct-04 20:30N 71°24' E 027°33'611.2
2017-Oct-04 19:59N 71°23' E 027°51'611.2
2017-Oct-04 19:30N 71°22' E 028°08'511.1
2017-Oct-04 19:00N 71°21' E 028°25'510.6
2017-Oct-04 18:30N 71°19' E 028°40'511.0
2017-Oct-04 18:00N 71°16' E 028°53'510.9
2017-Oct-04 17:30N 71°12' E 029°06'510.3
2017-Oct-04 17:00N 71°09' E 029°18'510.2
2017-Oct-04 16:30N 71°05' E 029°30'510.1
2017-Oct-04 16:00N 71°02' E 029°42'5 9.6
2017-Oct-04 15:30N 70°57' E 029°46'510.5
2017-Oct-04 15:00N 70°52' E 029°49'510.5
2017-Oct-04 14:29N 70°47' E 029°51'510.2
2017-Oct-04 14:00N 70°42' E 029°51'5 9.6
2017-Oct-04 13:30N 70°38' E 029°44'0 0.1
2017-Oct-04 12:55N 70°38' E 029°44'0 0.0
2017-Oct-04 12:25N 70°38' E 029°44'0 0.0
2017-Oct-04 11:55N 70°38' E 029°44'0 0.0
2017-Oct-04 11:31N 70°38' E 029°44'0 0.0
2017-Oct-04 11:01N 70°38' E 029°44'0 0.0
2017-Oct-04 10:31N 70°38' E 029°44'0 0.6
2017-Oct-04 09:57N 70°38' E 029°44'0 0.0
2017-Oct-04 09:27N 70°38' E 029°44'0 0.0
2017-Oct-04 08:57N 70°38' E 029°44'0 0.0
2017-Oct-04 08:27N 70°38' E 029°44'0 0.0
2017-Oct-04 07:57N 70°38' E 029°44'0 0.0
2017-Oct-04 07:21N 70°38' E 029°44'0 0.0
2017-Oct-04 06:57N 70°38' E 029°44'0 0.0
2017-Oct-04 06:27N 70°38' E 029°44'0 0.0
2017-Oct-04 05:57N 70°38' E 029°44'0 0.0
2017-Oct-04 05:27N 70°38' E 029°44'0 0.0
2017-Oct-04 04:57N 70°38' E 029°44'0 0.0
2017-Oct-04 04:27N 70°38' E 029°44'0 0.0
2017-Oct-04 03:57N 70°38' E 029°44'0 0.0
2017-Oct-04 03:27N 70°38' E 029°44'0 0.0
2017-Oct-04 02:57N 70°38' E 029°44'0 0.0
2017-Oct-04 02:27N 70°38' E 029°44'0 0.0
2017-Oct-04 01:57N 70°38' E 029°44'0 0.0
2017-Oct-04 01:27N 70°38' E 029°44'0 0.0
2017-Oct-04 00:57N 70°38' E 029°44'0 0.0
2017-Oct-04 00:27N 70°38' E 029°44'0 0.0
2017-Oct-03 23:57N 70°38' E 029°44'0 0.0
2017-Oct-03 23:27N 70°38' E 029°44'0 0.0
2017-Oct-03 22:57N 70°38' E 029°44'0 0.0
2017-Oct-03 22:27N 70°38' E 029°44'0 0.0
2017-Oct-03 21:57N 70°38' E 029°44'0 0.0
2017-Oct-03 21:27N 70°38' E 029°44'0 0.0
2017-Oct-03 20:57N 70°38' E 029°44'0 0.0
2017-Oct-03 20:27N 70°38' E 029°44'0 0.0
2017-Oct-03 19:57N 70°38' E 029°44'0 0.0
2017-Oct-03 19:27N 70°38' E 029°44'0 0.0
2017-Oct-03 18:57N 70°38' E 029°44'0 0.0
2017-Oct-03 18:27N 70°38' E 029°44'0 0.0
2017-Oct-03 17:51N 70°38' E 029°44'0 0.0
2017-Oct-03 17:27N 70°38' E 029°44'0 0.0
2017-Oct-03 16:57N 70°38' E 029°44'0 0.0
2017-Oct-03 16:27N 70°38' E 029°44'0 0.0
2017-Oct-03 15:57N 70°38' E 029°44'0 0.0
2017-Oct-03 15:27N 70°38' E 029°44'0 0.0
2017-Oct-03 14:57N 70°38' E 029°44'0 0.0
2017-Oct-03 13:57N 70°38' E 029°44'0 0.0
2017-Oct-03 13:21N 70°38' E 029°44'0 0.0
2017-Oct-03 12:57N 70°38' E 029°44'0 0.0
2017-Oct-03 12:27N 70°38' E 029°44'0 0.0
2017-Oct-03 11:57N 70°38' E 029°44'0 0.0
2017-Oct-03 11:27N 70°38' E 029°44'0 0.0
2017-Oct-03 10:57N 70°38' E 029°44'0 0.0
2017-Oct-03 10:27N 70°38' E 029°44'0 0.0
2017-Oct-03 09:57N 70°38' E 029°44'0 0.0
2017-Oct-03 09:27N 70°38' E 029°44'0 0.0
2017-Oct-03 08:45N 70°38' E 029°44'0 0.0
2017-Oct-03 08:27N 70°38' E 029°44'0 0.0
2017-Oct-03 07:57N 70°38' E 029°44'0 0.0
2017-Oct-03 07:27N 70°38' E 029°44'0 0.0
2017-Oct-03 06:57N 70°38' E 029°44'0 0.0
2017-Oct-03 06:27N 70°38' E 029°44'0 0.0
2017-Oct-03 05:57N 70°38' E 029°44'0 0.0
2017-Oct-03 05:21N 70°38' E 029°44'0 0.0
2017-Oct-03 04:57N 70°38' E 029°44'0 0.0
2017-Oct-03 04:27N 70°38' E 029°44'0 0.0
2017-Oct-03 03:57N 70°38' E 029°44'0 0.0
2017-Oct-03 03:21N 70°38' E 029°44'0 0.0
2017-Oct-03 02:57N 70°38' E 029°44'0 0.0
2017-Oct-03 02:27N 70°38' E 029°44'0 0.0
2017-Oct-03 01:57N 70°38' E 029°44'0 0.0
2017-Oct-03 01:27N 70°38' E 029°44'0 0.0
2017-Oct-03 00:51N 70°38' E 029°44'0 0.0
2017-Oct-03 00:21N 70°38' E 029°44'0 0.0
2017-Oct-02 23:57N 70°38' E 029°44'0 0.0
2017-Oct-02 23:27N 70°38' E 029°44'0 0.0
2017-Oct-02 22:57N 70°38' E 029°44'0 0.0
2017-Oct-02 22:27N 70°38' E 029°44'0 0.0
2017-Oct-02 21:57N 70°38' E 029°44'0 0.0
2017-Oct-02 21:27N 70°38' E 029°44'0 0.0
2017-Oct-02 20:45N 70°38' E 029°44'0 0.0
2017-Oct-02 20:27N 70°38' E 029°44'0 0.0
2017-Oct-02 19:57N 70°38' E 029°44'0 0.0
2017-Oct-02 19:27N 70°38' E 029°44'0 0.0
2017-Oct-02 18:57N 70°38' E 029°44'0 0.0
2017-Oct-02 18:27N 70°38' E 029°44'0 0.0
2017-Oct-02 17:57N 70°38' E 029°44'0 0.0
2017-Oct-02 17:27N 70°38' E 029°44'0 0.0
2017-Oct-02 16:57N 70°38' E 029°44'0 0.0
2017-Oct-02 16:27N 70°38' E 029°44'0 0.0
2017-Oct-02 15:57N 70°38' E 029°44'0 0.0
2017-Oct-02 15:27N 70°38' E 029°44'0 0.0
2017-Oct-02 14:57N 70°38' E 029°44'0 0.0
2017-Oct-02 14:27N 70°38' E 029°44'0 0.0
2017-Oct-02 13:57N 70°38' E 029°44'0 0.0
2017-Oct-02 13:21N 70°38' E 029°44'0 0.0
2017-Oct-02 12:57N 70°38' E 029°44'0 0.0
2017-Oct-02 12:27N 70°38' E 029°44'0 0.0
2017-Oct-02 11:51N 70°38' E 029°44'0 0.0
2017-Oct-02 11:27N 70°38' E 029°44'0 0.0
2017-Oct-02 10:57N 70°38' E 029°44'0 0.0
2017-Oct-02 10:27N 70°38' E 029°44'0 0.0
2017-Oct-02 09:57N 70°38' E 029°44'0 0.0
2017-Oct-02 09:21N 70°38' E 029°44'0 0.0
2017-Oct-02 08:57N 70°38' E 029°44'0 0.0
2017-Oct-02 08:27N 70°38' E 029°44'0 0.0
2017-Oct-02 07:57N 70°38' E 029°44'0 0.0
2017-Oct-02 07:27N 70°38' E 029°44'0 0.0
2017-Oct-02 06:57N 70°38' E 029°44'0 0.0
2017-Oct-02 06:27N 70°38' E 029°44'0 0.0
2017-Oct-02 05:57N 70°38' E 029°44'0 0.0
2017-Oct-02 05:27N 70°38' E 029°44'0 0.0
2017-Oct-02 04:57N 70°38' E 029°44'0 0.0
2017-Oct-02 04:27N 70°38' E 029°44'0 0.0
2017-Oct-02 03:57N 70°38' E 029°44'0 0.0
2017-Oct-02 03:27N 70°38' E 029°44'0 0.0
2017-Oct-02 02:51N 70°38' E 029°44'0 0.0
2017-Oct-02 02:27N 70°38' E 029°44'0 0.0
2017-Oct-02 01:57N 70°38' E 029°44'0 0.0
2017-Oct-02 01:27N 70°38' E 029°44'0 0.0
2017-Oct-02 00:51N 70°38' E 029°44'0 0.0
2017-Oct-02 00:21N 70°38' E 029°44'0 0.0
2017-Oct-01 23:51N 70°38' E 029°44'0 0.0
2017-Oct-01 23:27N 70°38' E 029°44'0 0.0
2017-Oct-01 22:57N 70°38' E 029°44'0 0.0
2017-Oct-01 22:27N 70°38' E 029°44'0 0.0
2017-Oct-01 21:57N 70°38' E 029°44'0 0.0
2017-Oct-01 21:27N 70°38' E 029°44'0 0.0
2017-Oct-01 20:57N 70°38' E 029°44'0 0.0
2017-Oct-01 20:27N 70°38' E 029°44'0 0.0
2017-Oct-01 19:57N 70°38' E 029°44'0 0.0
2017-Oct-01 19:27N 70°38' E 029°44'0 0.0
2017-Oct-01 18:57N 70°38' E 029°44'0 0.0
2017-Oct-01 18:27N 70°38' E 029°44'0 0.0
2017-Oct-01 17:51N 70°38' E 029°44'0 0.0
2017-Oct-01 17:27N 70°38' E 029°44'0 0.0
2017-Oct-01 16:57N 70°38' E 029°44'0 0.0
2017-Oct-01 16:27N 70°38' E 029°44'0 0.0
2017-Oct-01 15:57N 70°38' E 029°44'0 0.0
2017-Oct-01 15:27N 70°38' E 029°44'0 0.0
2017-Oct-01 14:57N 70°38' E 029°44'0 0.0
2017-Oct-01 14:27N 70°38' E 029°44'0 0.0
2017-Oct-01 13:57N 70°38' E 029°44'0 0.0
2017-Oct-01 13:21N 70°38' E 029°44'0 0.0
2017-Oct-01 12:57N 70°38' E 029°44'0 0.0
2017-Oct-01 12:27N 70°38' E 029°44'0 0.0
2017-Oct-01 11:57N 70°38' E 029°44'0 0.0
2017-Oct-01 11:27N 70°38' E 029°44'0 0.0
2017-Oct-01 10:57N 70°38' E 029°44'0 0.0
2017-Oct-01 10:27N 70°38' E 029°44'0 0.0
2017-Oct-01 09:45N 70°38' E 029°44'0 0.0
2017-Oct-01 09:27N 70°38' E 029°44'0 0.0
2017-Oct-01 08:57N 70°38' E 029°44'0 0.0
2017-Oct-01 08:21N 70°38' E 029°44'0 0.0
2017-Oct-01 07:57N 70°38' E 029°44'0 0.0
2017-Oct-01 07:27N 70°38' E 029°44'0 0.0
2017-Oct-01 06:51N 70°38' E 029°44'0 0.0
2017-Oct-01 06:27N 70°38' E 029°44'0 0.0
2017-Oct-01 05:51N 70°38' E 029°44'0 0.0
2017-Oct-01 05:15N 70°38' E 029°44'0 0.0
2017-Oct-01 04:57N 70°38' E 029°44'0 0.0
2017-Oct-01 04:21N 70°38' E 029°44'0 0.0
2017-Oct-01 03:57N 70°38' E 029°44'0 0.0
2017-Oct-01 03:27N 70°38' E 029°44'0 0.0
2017-Oct-01 02:57N 70°38' E 029°44'0 0.0
2017-Sep-30 01:57N 70°38' E 029°44'0 0.0
2017-Sep-30 01:15N 70°38' E 029°44'0 0.0
2017-Sep-30 00:57N 70°38' E 029°44'0 0.0
2017-Sep-30 00:27N 70°38' E 029°44'0 0.0
2017-Sep-29 23:57N 70°38' E 029°44'0 0.0
2017-Sep-29 23:21N 70°38' E 029°44'0 0.0
2017-Sep-29 22:57N 70°38' E 029°44'0 0.0
2017-Sep-29 22:27N 70°38' E 029°44'0 0.0
2017-Sep-29 21:57N 70°38' E 029°44'0 0.0
2017-Sep-29 21:27N 70°38' E 029°44'0 0.0
2017-Sep-29 20:57N 70°38' E 029°44'0 0.0
2017-Sep-29 20:27N 70°38' E 029°44'0 0.0
2017-Sep-29 19:57N 70°38' E 029°44'0 0.0
2017-Sep-29 19:27N 70°38' E 029°44'0 0.0
2017-Sep-29 18:57N 70°38' E 029°44'0 0.0
2017-Sep-29 18:27N 70°38' E 029°44'0 0.0
2017-Sep-29 17:57N 70°38' E 029°44'0 0.0
2017-Sep-29 17:27N 70°38' E 029°44'0 0.0
2017-Sep-29 16:57N 70°38' E 029°44'0 0.0
2017-Sep-29 16:27N 70°38' E 029°44'0 0.0
2017-Sep-29 15:57N 70°38' E 029°44'0 0.0
2017-Sep-29 15:27N 70°38' E 029°44'0 0.0
2017-Sep-29 14:51N 70°38' E 029°44'0 0.0
2017-Sep-29 14:09N 70°38' E 029°44'0 0.0
2017-Sep-29 13:45N 70°38' E 029°44'0 0.0
2017-Sep-29 13:27N 70°38' E 029°44'0 0.0
2017-Sep-29 12:57N 70°38' E 029°44'0 0.0
2017-Sep-29 12:27N 70°38' E 029°44'0 0.0
2017-Sep-29 11:51N 70°38' E 029°44'0 0.0
2017-Sep-29 11:21N 70°38' E 029°44'0 0.0
2017-Sep-29 10:57N 70°38' E 029°44'0 0.0
2017-Sep-29 10:27N 70°38' E 029°44'0 0.0
2017-Sep-29 09:51N 70°38' E 029°44'0 0.0
2017-Sep-29 09:27N 70°38' E 029°44'0 0.0
2017-Sep-29 08:57N 70°38' E 029°44'0 0.0
2017-Sep-29 08:27N 70°38' E 029°44'0 0.0
2017-Sep-29 07:57N 70°38' E 029°44'0 0.0
2017-Sep-29 07:27N 70°38' E 029°44'0 0.0
2017-Sep-29 06:57N 70°38' E 029°44'0 0.0
2017-Sep-29 06:27N 70°38' E 029°44'0 0.0
2017-Sep-29 05:57N 70°38' E 029°44'0 0.0
2017-Sep-29 05:15N 70°38' E 029°44'0 0.0
2017-Sep-29 04:57N 70°38' E 029°44'0 0.0
2017-Sep-29 04:27N 70°38' E 029°44'0 0.0
2017-Sep-29 03:57N 70°38' E 029°44'0 0.0
2017-Sep-29 03:27N 70°38' E 029°44'0 0.0
2017-Sep-29 02:57N 70°38' E 029°44'0 0.0
2017-Sep-29 02:21N 70°38' E 029°44'0 0.0
2017-Sep-29 01:51N 70°38' E 029°44'0 0.0
2017-Sep-29 01:21N 70°38' E 029°44'0 0.0
2017-Sep-29 00:57N 70°38' E 029°44'0 0.0
2017-Sep-29 00:27N 70°38' E 029°44'0 0.0
2017-Sep-28 23:51N 70°38' E 029°44'0 0.0
2017-Sep-28 23:27N 70°38' E 029°44'0 0.0
2017-Sep-28 22:57N 70°38' E 029°44'0 0.0
2017-Sep-28 22:21N 70°38' E 029°44'0 0.0
2017-Sep-28 21:57N 70°38' E 029°44'0 0.0
2017-Sep-28 21:27N 70°38' E 029°44'0 0.0
2017-Sep-28 20:57N 70°38' E 029°44'0 0.0
2017-Sep-28 20:21N 70°38' E 029°44'0 0.0
2017-Sep-28 19:57N 70°38' E 029°44'0 0.0
2017-Sep-28 19:27N 70°38' E 029°44'0 0.0
2017-Sep-28 18:57N 70°38' E 029°44'0 0.0
2017-Sep-28 18:27N 70°38' E 029°44'0 0.0
2017-Sep-28 17:57N 70°38' E 029°44'0 0.0
2017-Sep-28 17:27N 70°38' E 029°44'0 0.0
2017-Sep-28 16:57N 70°38' E 029°44'0 0.0
2017-Sep-28 16:27N 70°38' E 029°44'0 0.0
2017-Sep-28 15:57N 70°38' E 029°44'0 0.0
2017-Sep-28 15:27N 70°38' E 029°44'0 0.0
2017-Sep-28 14:57N 70°38' E 029°44'0 0.0
2017-Sep-28 14:27N 70°38' E 029°44'0 0.0
2017-Sep-28 13:57N 70°38' E 029°44'0 0.0
2017-Sep-28 13:27N 70°38' E 029°44'0 0.0
2017-Sep-28 12:57N 70°38' E 029°44'0 0.0
2017-Sep-28 12:21N 70°38' E 029°44'0 0.0
2017-Sep-28 11:51N 70°38' E 029°44'0 0.0
2017-Sep-28 11:27N 70°38' E 029°44'0 0.0
2017-Sep-28 10:57N 70°38' E 029°44'0 0.0
2017-Sep-28 10:27N 70°38' E 029°44'0 0.0
2017-Sep-28 09:57N 70°38' E 029°44'0 0.0
2017-Sep-28 09:27N 70°38' E 029°44'0 0.0
2017-Sep-28 08:57N 70°38' E 029°44'0 0.0
2017-Sep-28 08:15N 70°38' E 029°44'0 0.0
2017-Sep-28 07:57N 70°38' E 029°44'0 0.0
2017-Sep-28 07:27N 70°38' E 029°44'0 0.0
2017-Sep-28 06:57N 70°38' E 029°44'0 0.0
2017-Sep-28 06:27N 70°38' E 029°44'0 0.0
2017-Sep-28 05:51N 70°38' E 029°44'0 0.0
2017-Sep-28 05:27N 70°38' E 029°44'0 0.0
2017-Sep-28 04:57N 70°38' E 029°44'0 0.0
2017-Sep-28 04:27N 70°38' E 029°44'0 0.0
2017-Sep-28 03:57N 70°38' E 029°44'0 0.0
2017-Sep-28 03:21N 70°38' E 029°44'0 0.0
2017-Sep-28 02:57N 70°38' E 029°44'0 0.0
2017-Sep-28 02:21N 70°38' E 029°44'0 0.0
2017-Sep-28 01:57N 70°38' E 029°44'0 0.0
2017-Sep-28 01:27N 70°38' E 029°44'0 0.0
2017-Sep-28 00:57N 70°38' E 029°44'0 0.0
2017-Sep-28 00:09N 70°38' E 029°44'0 0.0
2017-Sep-27 23:57N 70°38' E 029°44'0 0.0
2017-Sep-27 23:27N 70°38' E 029°44'0 0.0
2017-Sep-27 22:57N 70°38' E 029°44'0 0.0
2017-Sep-27 22:27N 70°38' E 029°44'0 0.0
2017-Sep-27 21:57N 70°38' E 029°44'0 0.0
2017-Sep-27 21:27N 70°38' E 029°44'0 0.0
2017-Sep-27 20:45N 70°38' E 029°44'0 0.0
2017-Sep-27 20:27N 70°38' E 029°44'0 0.0
2017-Sep-27 19:57N 70°38' E 029°44'0 0.0
2017-Sep-27 19:27N 70°38' E 029°44'0 0.0
2017-Sep-27 18:57N 70°38' E 029°44'0 0.0
2017-Sep-27 18:21N 70°38' E 029°44'0 0.0
2017-Sep-27 17:57N 70°38' E 029°44'0 0.0
2017-Sep-27 17:21N 70°38' E 029°44'0 0.0
2017-Sep-27 16:57N 70°38' E 029°44'0 0.0
2017-Sep-27 16:21N 70°38' E 029°44'0 0.0
2017-Sep-27 15:57N 70°38' E 029°44'0 0.0
2017-Sep-27 15:21N 70°38' E 029°44'0 0.0
2017-Sep-27 14:57N 70°38' E 029°44'0 0.0
2017-Sep-27 14:27N 70°38' E 029°44'0 0.0
2017-Sep-27 13:57N 70°38' E 029°44'0 0.0
2017-Sep-27 13:27N 70°38' E 029°44'0 0.0
2017-Sep-27 12:57N 70°38' E 029°44'0 0.0
2017-Sep-27 12:27N 70°38' E 029°44'0 0.0
2017-Sep-27 11:57N 70°38' E 029°44'0 0.0
2017-Sep-27 11:21N 70°38' E 029°44'0 0.0
2017-Sep-27 10:57N 70°38' E 029°44'0 0.0
2017-Sep-27 10:27N 70°38' E 029°44'0 0.0
2017-Sep-27 09:57N 70°38' E 029°44'0 0.0
2017-Sep-27 09:27N 70°38' E 029°44'0 0.0
2017-Sep-27 08:57N 70°38' E 029°44'0 0.0
2017-Sep-27 08:27N 70°38' E 029°44'0 0.0
2017-Sep-27 07:57N 70°38' E 029°44'0 0.0
2017-Sep-27 07:27N 70°38' E 029°44'0 0.0
2017-Sep-27 06:57N 70°38' E 029°44'0 0.0
2017-Sep-27 06:27N 70°38' E 029°44'0 0.0
2017-Sep-27 05:57N 70°38' E 029°44'0 0.0
2017-Sep-27 05:27N 70°38' E 029°44'0 0.0
2017-Sep-27 04:57N 70°38' E 029°44'0 0.0
2017-Sep-27 04:27N 70°38' E 029°44'0 0.0
2017-Sep-27 03:57N 70°38' E 029°44'0 0.0
2017-Sep-27 03:21N 70°38' E 029°44'0 0.0
2017-Sep-27 02:57N 70°38' E 029°44'0 0.0
2017-Sep-27 02:27N 70°38' E 029°44'0 0.0
2017-Sep-27 01:57N 70°38' E 029°44'0 0.0
2017-Sep-27 01:27N 70°38' E 029°44'0 0.0
2017-Sep-27 00:57N 70°38' E 029°44'0 0.0
2017-Sep-27 00:27N 70°38' E 029°44'0 0.0
2017-Sep-26 23:57N 70°38' E 029°44'0 0.0
2017-Sep-26 23:27N 70°38' E 029°44'0 0.0
2017-Sep-26 22:57N 70°38' E 029°44'0 0.0
2017-Sep-26 22:27N 70°38' E 029°44'0 0.0
2017-Sep-26 21:57N 70°38' E 029°44'0 0.0
2017-Sep-26 21:27N 70°38' E 029°44'0 0.0
2017-Sep-26 20:57N 70°38' E 029°44'0 0.0
2017-Sep-26 20:27N 70°38' E 029°44'0 0.0
2017-Sep-26 19:57N 70°38' E 029°44'0 0.0
2017-Sep-26 19:27N 70°38' E 029°44'0 0.0
2017-Sep-26 18:57N 70°38' E 029°44'0 0.0
2017-Sep-26 18:21N 70°38' E 029°44'0 0.0
2017-Sep-26 17:57N 70°38' E 029°44'0 0.0
2017-Sep-26 17:27N 70°38' E 029°44'0 0.0
2017-Sep-26 16:57N 70°38' E 029°44'0 0.0
2017-Sep-26 16:27N 70°38' E 029°44'0 0.0
2017-Sep-26 15:57N 70°38' E 029°44'0 0.0
2017-Sep-26 15:27N 70°38' E 029°44'0 0.0
2017-Sep-26 14:57N 70°38' E 029°44'0 0.0
2017-Sep-26 14:27N 70°38' E 029°44'0 0.0
2017-Sep-26 13:57N 70°38' E 029°44'0 0.0
2017-Sep-26 13:27N 70°38' E 029°44'0 0.0
2017-Sep-26 12:57N 70°38' E 029°44'0 0.0
2017-Sep-26 12:27N 70°38' E 029°44'0 0.0
2017-Sep-26 11:57N 70°38' E 029°44'0 0.0
2017-Sep-26 11:21N 70°38' E 029°44'0 0.0
2017-Sep-26 10:57N 70°38' E 029°44'0 0.0
2017-Sep-26 10:27N 70°38' E 029°44'0 0.0
2017-Sep-26 09:57N 70°38' E 029°44'0 0.0
2017-Sep-26 09:21N 70°38' E 029°44'0 0.0
2017-Sep-26 08:57N 70°38' E 029°44'0 0.0
2017-Sep-26 08:27N 70°38' E 029°44'0 0.0
2017-Sep-26 07:57N 70°38' E 029°44'0 0.0
2017-Sep-26 07:27N 70°38' E 029°44'0 0.0
2017-Sep-26 06:57N 70°38' E 029°44'0 0.0
2017-Sep-26 06:21N 70°38' E 029°44'0 0.0
2017-Sep-26 05:57N 70°38' E 029°44'0 0.0
2017-Sep-26 05:27N 70°38' E 029°44'0 0.0
2017-Sep-26 04:57N 70°38' E 029°44'0 0.0
2017-Sep-26 04:27N 70°38' E 029°44'0 0.0
2017-Sep-26 03:57N 70°38' E 029°44'0 0.0
2017-Sep-26 03:27N 70°38' E 029°44'0 0.0
2017-Sep-26 02:57N 70°38' E 029°44'0 0.0
2017-Sep-26 02:27N 70°38' E 029°44'0 0.0
2017-Sep-26 01:57N 70°38' E 029°44'0 0.0
2017-Sep-26 01:27N 70°38' E 029°44'  
Track history (hours):
 
Tides and Currents Weather Stations Pressure Air Temp Water Temp Dewpoint Dewpoint Depression Visibility Wind Speed Wind Dir Waves Ship Positions

Zvezda Murmana

Last reported at 2017-Oct-06 01:21 UTC. Time now 2017-Oct-22 10:30 UTC.
Position N 69°20' E 014°15'.
Warning: this ship's position is 16 days out of date.

Length 67 m; draft 6.5 m.

Type: Fishing. MMSI: 273352230.

Date/timePositionNaut miles runAvg speedWind from/ knotsBaromVisibWave heightAir tempDewpointWater temp
2017-Oct-06 01:21N 69°20' E 014°15'410.7
2017-Oct-06 01:00N 69°22' E 014°23'510.8
2017-Oct-06 00:30N 69°26' E 014°35'510.7
2017-Oct-06 00:00N 69°29' E 014°46'10910.4
2017-Oct-05 13:30N 70°38' E 018°55'510.7
2017-Oct-05 13:00N 70°40' E 019°10'10310.6
2017-Oct-05 03:14N 71°21' E 023°60'310.4
2017-Oct-05 03:00N 71°22' E 024°07'510.1
2017-Oct-05 02:30N 71°23' E 024°23'510.1
2017-Oct-05 02:00N 71°24' E 024°39'510.0
2017-Oct-05 01:30N 71°24' E 024°54'5 9.4
2017-Oct-05 01:00N 71°25' E 025°09'5 8.9
2017-Oct-05 00:29N 71°26' E 025°23'5 9.5
2017-Oct-05 00:00N 71°27' E 025°37'5 9.9
2017-Oct-04 23:30N 71°27' E 025°53'5 9.9
2017-Oct-04 23:00N 71°26' E 026°08'5 9.8
2017-Oct-04 22:30N 71°26' E 026°24'510.5
2017-Oct-04 21:59N 71°25' E 026°40'611.3
2017-Oct-04 21:30N 71°25' E 026°57'611.4
2017-Oct-04 21:00N 71°24' E 027°15'611.4
2017-Oct-04 20:30N 71°24' E 027°33'611.2
2017-Oct-04 19:59N 71°23' E 027°51'611.2
2017-Oct-04 19:30N 71°22' E 028°08'511.1
2017-Oct-04 19:00N 71°21' E 028°25'510.6
2017-Oct-04 18:30N 71°19' E 028°40'511.0
2017-Oct-04 18:00N 71°16' E 028°53'510.9
2017-Oct-04 17:30N 71°12' E 029°06'510.3
2017-Oct-04 17:00N 71°09' E 029°18'510.2
2017-Oct-04 16:30N 71°05' E 029°30'510.1
2017-Oct-04 16:00N 71°02' E 029°42'5 9.6
2017-Oct-04 15:30N 70°57' E 029°46'510.5
2017-Oct-04 15:00N 70°52' E 029°49'510.5
2017-Oct-04 14:29N 70°47' E 029°51'510.2
2017-Oct-04 14:00N 70°42' E 029°51'5 9.6
2017-Oct-04 13:30N 70°38' E 029°44'0 0.1
2017-Oct-04 12:55N 70°38' E 029°44'0 0.0
2017-Oct-04 12:25N 70°38' E 029°44'0 0.0
2017-Oct-04 11:55N 70°38' E 029°44'0 0.0
2017-Oct-04 11:31N 70°38' E 029°44'0 0.0
2017-Oct-04 11:01N 70°38' E 029°44'0 0.0
2017-Oct-04 10:31N 70°38' E 029°44'0 0.6
2017-Oct-04 09:57N 70°38' E 029°44'0 0.0
2017-Oct-04 09:27N 70°38' E 029°44'0 0.0
2017-Oct-04 08:57N 70°38' E 029°44'0 0.0
2017-Oct-04 08:27N 70°38' E 029°44'0 0.0
2017-Oct-04 07:57N 70°38' E 029°44'0 0.0
2017-Oct-04 07:21N 70°38' E 029°44'0 0.0
2017-Oct-04 06:57N 70°38' E 029°44'0 0.0
2017-Oct-04 06:27N 70°38' E 029°44'0 0.0
2017-Oct-04 05:57N 70°38' E 029°44'0 0.0
2017-Oct-04 05:27N 70°38' E 029°44'0 0.0
2017-Oct-04 04:57N 70°38' E 029°44'0 0.0
2017-Oct-04 04:27N 70°38' E 029°44'0 0.0
2017-Oct-04 03:57N 70°38' E 029°44'0 0.0
2017-Oct-04 03:27N 70°38' E 029°44'0 0.0
2017-Oct-04 02:57N 70°38' E 029°44'0 0.0
2017-Oct-04 02:27N 70°38' E 029°44'0 0.0
2017-Oct-04 01:57N 70°38' E 029°44'0 0.0
2017-Oct-04 01:27N 70°38' E 029°44'0 0.0
2017-Oct-04 00:57N 70°38' E 029°44'0 0.0
2017-Oct-04 00:27N 70°38' E 029°44'0 0.0
2017-Oct-03 23:57N 70°38' E 029°44'0 0.0
2017-Oct-03 23:27N 70°38' E 029°44'0 0.0
2017-Oct-03 22:57N 70°38' E 029°44'0 0.0
2017-Oct-03 22:27N 70°38' E 029°44'0 0.0
2017-Oct-03 21:57N 70°38' E 029°44'0 0.0
2017-Oct-03 21:27N 70°38' E 029°44'0 0.0
2017-Oct-03 20:57N 70°38' E 029°44'0 0.0
2017-Oct-03 20:27N 70°38' E 029°44'0 0.0
2017-Oct-03 19:57N 70°38' E 029°44'0 0.0
2017-Oct-03 19:27N 70°38' E 029°44'0 0.0
2017-Oct-03 18:57N 70°38' E 029°44'0 0.0
2017-Oct-03 18:27N 70°38' E 029°44'0 0.0
2017-Oct-03 17:51N 70°38' E 029°44'0 0.0
2017-Oct-03 17:27N 70°38' E 029°44'0 0.0
2017-Oct-03 16:57N 70°38' E 029°44'0 0.0
2017-Oct-03 16:27N 70°38' E 029°44'0 0.0
2017-Oct-03 15:57N 70°38' E 029°44'0 0.0
2017-Oct-03 15:27N 70°38' E 029°44'0 0.0
2017-Oct-03 14:57N 70°38' E 029°44'0 0.0
2017-Oct-03 13:57N 70°38' E 029°44'0 0.0
2017-Oct-03 13:21N 70°38' E 029°44'0 0.0
2017-Oct-03 12:57N 70°38' E 029°44'0 0.0
2017-Oct-03 12:27N 70°38' E 029°44'0 0.0
2017-Oct-03 11:57N 70°38' E 029°44'0 0.0
2017-Oct-03 11:27N 70°38' E 029°44'0 0.0
2017-Oct-03 10:57N 70°38' E 029°44'0 0.0
2017-Oct-03 10:27N 70°38' E 029°44'0 0.0
2017-Oct-03 09:57N 70°38' E 029°44'0 0.0
2017-Oct-03 09:27N 70°38' E 029°44'0 0.0
2017-Oct-03 08:45N 70°38' E 029°44'0 0.0
2017-Oct-03 08:27N 70°38' E 029°44'0 0.0
2017-Oct-03 07:57N 70°38' E 029°44'0 0.0
2017-Oct-03 07:27N 70°38' E 029°44'0 0.0
2017-Oct-03 06:57N 70°38' E 029°44'0 0.0
2017-Oct-03 06:27N 70°38' E 029°44'0 0.0
2017-Oct-03 05:57N 70°38' E 029°44'0 0.0
2017-Oct-03 05:21N 70°38' E 029°44'0 0.0
2017-Oct-03 04:57N 70°38' E 029°44'0 0.0
2017-Oct-03 04:27N 70°38' E 029°44'0 0.0
2017-Oct-03 03:57N 70°38' E 029°44'0 0.0
2017-Oct-03 03:21N 70°38' E 029°44'0 0.0
2017-Oct-03 02:57N 70°38' E 029°44'0 0.0
2017-Oct-03 02:27N 70°38' E 029°44'0 0.0
2017-Oct-03 01:57N 70°38' E 029°44'0 0.0
2017-Oct-03 01:27N 70°38' E 029°44'0 0.0
2017-Oct-03 00:51N 70°38' E 029°44'0 0.0
2017-Oct-03 00:21N 70°38' E 029°44'0 0.0
2017-Oct-02 23:57N 70°38' E 029°44'0 0.0
2017-Oct-02 23:27N 70°38' E 029°44'0 0.0
2017-Oct-02 22:57N 70°38' E 029°44'0 0.0
2017-Oct-02 22:27N 70°38' E 029°44'0 0.0
2017-Oct-02 21:57N 70°38' E 029°44'0 0.0
2017-Oct-02 21:27N 70°38' E 029°44'0 0.0
2017-Oct-02 20:45N 70°38' E 029°44'0 0.0
2017-Oct-02 20:27N 70°38' E 029°44'0 0.0
2017-Oct-02 19:57N 70°38' E 029°44'0 0.0
2017-Oct-02 19:27N 70°38' E 029°44'0 0.0
2017-Oct-02 18:57N 70°38' E 029°44'0 0.0
2017-Oct-02 18:27N 70°38' E 029°44'0 0.0
2017-Oct-02 17:57N 70°38' E 029°44'0 0.0
2017-Oct-02 17:27N 70°38' E 029°44'0 0.0
2017-Oct-02 16:57N 70°38' E 029°44'0 0.0
2017-Oct-02 16:27N 70°38' E 029°44'0 0.0
2017-Oct-02 15:57N 70°38' E 029°44'0 0.0
2017-Oct-02 15:27N 70°38' E 029°44'0 0.0
2017-Oct-02 14:57N 70°38' E 029°44'0 0.0
2017-Oct-02 14:27N 70°38' E 029°44'0 0.0
2017-Oct-02 13:57N 70°38' E 029°44'0 0.0
2017-Oct-02 13:21N 70°38' E 029°44'0 0.0
2017-Oct-02 12:57N 70°38' E 029°44'0 0.0
2017-Oct-02 12:27N 70°38' E 029°44'0 0.0
2017-Oct-02 11:51N 70°38' E 029°44'0 0.0
2017-Oct-02 11:27N 70°38' E 029°44'0 0.0
2017-Oct-02 10:57N 70°38' E 029°44'0 0.0
2017-Oct-02 10:27N 70°38' E 029°44'0 0.0
2017-Oct-02 09:57N 70°38' E 029°44'0 0.0
2017-Oct-02 09:21N 70°38' E 029°44'0 0.0
2017-Oct-02 08:57N 70°38' E 029°44'0 0.0
2017-Oct-02 08:27N 70°38' E 029°44'0 0.0
2017-Oct-02 07:57N 70°38' E 029°44'0 0.0
2017-Oct-02 07:27N 70°38' E 029°44'0 0.0
2017-Oct-02 06:57N 70°38' E 029°44'0 0.0
2017-Oct-02 06:27N 70°38' E 029°44'0 0.0
2017-Oct-02 05:57N 70°38' E 029°44'0 0.0
2017-Oct-02 05:27N 70°38' E 029°44'0 0.0
2017-Oct-02 04:57N 70°38' E 029°44'0 0.0
2017-Oct-02 04:27N 70°38' E 029°44'0 0.0
2017-Oct-02 03:57N 70°38' E 029°44'0 0.0
2017-Oct-02 03:27N 70°38' E 029°44'0 0.0
2017-Oct-02 02:51N 70°38' E 029°44'0 0.0
2017-Oct-02 02:27N 70°38' E 029°44'0 0.0
2017-Oct-02 01:57N 70°38' E 029°44'0 0.0
2017-Oct-02 01:27N 70°38' E 029°44'0 0.0
2017-Oct-02 00:51N 70°38' E 029°44'0 0.0
2017-Oct-02 00:21N 70°38' E 029°44'0 0.0
2017-Oct-01 23:51N 70°38' E 029°44'0 0.0
2017-Oct-01 23:27N 70°38' E 029°44'0 0.0
2017-Oct-01 22:57N 70°38' E 029°44'0 0.0
2017-Oct-01 22:27N 70°38' E 029°44'0 0.0
2017-Oct-01 21:57N 70°38' E 029°44'0 0.0
2017-Oct-01 21:27N 70°38' E 029°44'0 0.0
2017-Oct-01 20:57N 70°38' E 029°44'0 0.0
2017-Oct-01 20:27N 70°38' E 029°44'0 0.0
2017-Oct-01 19:57N 70°38' E 029°44'0 0.0
2017-Oct-01 19:27N 70°38' E 029°44'0 0.0
2017-Oct-01 18:57N 70°38' E 029°44'0 0.0
2017-Oct-01 18:27N 70°38' E 029°44'0 0.0
2017-Oct-01 17:51N 70°38' E 029°44'0 0.0
2017-Oct-01 17:27N 70°38' E 029°44'0 0.0
2017-Oct-01 16:57N 70°38' E 029°44'0 0.0
2017-Oct-01 16:27N 70°38' E 029°44'0 0.0
2017-Oct-01 15:57N 70°38' E 029°44'0 0.0
2017-Oct-01 15:27N 70°38' E 029°44'0 0.0
2017-Oct-01 14:57N 70°38' E 029°44'0 0.0
2017-Oct-01 14:27N 70°38' E 029°44'0 0.0
2017-Oct-01 13:57N 70°38' E 029°44'0 0.0
2017-Oct-01 13:21N 70°38' E 029°44'0 0.0
2017-Oct-01 12:57N 70°38' E 029°44'0 0.0
2017-Oct-01 12:27N 70°38' E 029°44'0 0.0
2017-Oct-01 11:57N 70°38' E 029°44'0 0.0
2017-Oct-01 11:27N 70°38' E 029°44'0 0.0
2017-Oct-01 10:57N 70°38' E 029°44'0 0.0
2017-Oct-01 10:27N 70°38' E 029°44'0 0.0
2017-Oct-01 09:45N 70°38' E 029°44'0 0.0
2017-Oct-01 09:27N 70°38' E 029°44'0 0.0
2017-Oct-01 08:57N 70°38' E 029°44'0 0.0
2017-Oct-01 08:21N 70°38' E 029°44'0 0.0
2017-Oct-01 07:57N 70°38' E 029°44'0 0.0
2017-Oct-01 07:27N 70°38' E 029°44'0 0.0
2017-Oct-01 06:51N 70°38' E 029°44'0 0.0
2017-Oct-01 06:27N 70°38' E 029°44'0 0.0
2017-Oct-01 05:51N 70°38' E 029°44'0 0.0
2017-Oct-01 05:15N 70°38' E 029°44'0 0.0
2017-Oct-01 04:57N 70°38' E 029°44'0 0.0
2017-Oct-01 04:21N 70°38' E 029°44'0 0.0
2017-Oct-01 03:57N 70°38' E 029°44'0 0.0
2017-Oct-01 03:27N 70°38' E 029°44'0 0.0
2017-Oct-01 02:57N 70°38' E 029°44'0 0.0
2017-Sep-30 01:57N 70°38' E 029°44'0 0.0
2017-Sep-30 01:15N 70°38' E 029°44'0 0.0
2017-Sep-30 00:57N 70°38' E 029°44'0 0.0
2017-Sep-30 00:27N 70°38' E 029°44'0 0.0
2017-Sep-29 23:57N 70°38' E 029°44'0 0.0
2017-Sep-29 23:21N 70°38' E 029°44'0 0.0
2017-Sep-29 22:57N 70°38' E 029°44'0 0.0
2017-Sep-29 22:27N 70°38' E 029°44'0 0.0
2017-Sep-29 21:57N 70°38' E 029°44'0 0.0
2017-Sep-29 21:27N 70°38' E 029°44'0 0.0
2017-Sep-29 20:57N 70°38' E 029°44'0 0.0
2017-Sep-29 20:27N 70°38' E 029°44'0 0.0
2017-Sep-29 19:57N 70°38' E 029°44'0 0.0
2017-Sep-29 19:27N 70°38' E 029°44'0 0.0
2017-Sep-29 18:57N 70°38' E 029°44'0 0.0
2017-Sep-29 18:27N 70°38' E 029°44'0 0.0
2017-Sep-29 17:57N 70°38' E 029°44'0 0.0
2017-Sep-29 17:27N 70°38' E 029°44'0 0.0
2017-Sep-29 16:57N 70°38' E 029°44'0 0.0
2017-Sep-29 16:27N 70°38' E 029°44'0 0.0
2017-Sep-29 15:57N 70°38' E 029°44'0 0.0
2017-Sep-29 15:27N 70°38' E 029°44'0 0.0
2017-Sep-29 14:51N 70°38' E 029°44'0 0.0
2017-Sep-29 14:09N 70°38' E 029°44'0 0.0
2017-Sep-29 13:45N 70°38' E 029°44'0 0.0
2017-Sep-29 13:27N 70°38' E 029°44'0 0.0
2017-Sep-29 12:57N 70°38' E 029°44'0 0.0
2017-Sep-29 12:27N 70°38' E 029°44'0 0.0
2017-Sep-29 11:51N 70°38' E 029°44'0 0.0
2017-Sep-29 11:21N 70°38' E 029°44'0 0.0
2017-Sep-29 10:57N 70°38' E 029°44'0 0.0
2017-Sep-29 10:27N 70°38' E 029°44'0 0.0
2017-Sep-29 09:51N 70°38' E 029°44'0 0.0
2017-Sep-29 09:27N 70°38' E 029°44'0 0.0
2017-Sep-29 08:57N 70°38' E 029°44'0 0.0
2017-Sep-29 08:27N 70°38' E 029°44'0 0.0
2017-Sep-29 07:57N 70°38' E 029°44'0 0.0
2017-Sep-29 07:27N 70°38' E 029°44'0 0.0
2017-Sep-29 06:57N 70°38' E 029°44'0 0.0
2017-Sep-29 06:27N 70°38' E 029°44'0 0.0
2017-Sep-29 05:57N 70°38' E 029°44'0 0.0
2017-Sep-29 05:15N 70°38' E 029°44'0 0.0
2017-Sep-29 04:57N 70°38' E 029°44'0 0.0
2017-Sep-29 04:27N 70°38' E 029°44'0 0.0
2017-Sep-29 03:57N 70°38' E 029°44'0 0.0
2017-Sep-29 03:27N 70°38' E 029°44'0 0.0
2017-Sep-29 02:57N 70°38' E 029°44'0 0.0
2017-Sep-29 02:21N 70°38' E 029°44'0 0.0
2017-Sep-29 01:51N 70°38' E 029°44'0 0.0
2017-Sep-29 01:21N 70°38' E 029°44'0 0.0
2017-Sep-29 00:57N 70°38' E 029°44'0 0.0
2017-Sep-29 00:27N 70°38' E 029°44'0 0.0
2017-Sep-28 23:51N 70°38' E 029°44'0 0.0
2017-Sep-28 23:27N 70°38' E 029°44'0 0.0
2017-Sep-28 22:57N 70°38' E 029°44'0 0.0
2017-Sep-28 22:21N 70°38' E 029°44'0 0.0
2017-Sep-28 21:57N 70°38' E 029°44'0 0.0
2017-Sep-28 21:27N 70°38' E 029°44'0 0.0
2017-Sep-28 20:57N 70°38' E 029°44'0 0.0
2017-Sep-28 20:21N 70°38' E 029°44'0 0.0
2017-Sep-28 19:57N 70°38' E 029°44'0 0.0
2017-Sep-28 19:27N 70°38' E 029°44'0 0.0
2017-Sep-28 18:57N 70°38' E 029°44'0 0.0
2017-Sep-28 18:27N 70°38' E 029°44'0 0.0
2017-Sep-28 17:57N 70°38' E 029°44'0 0.0
2017-Sep-28 17:27N 70°38' E 029°44'0 0.0
2017-Sep-28 16:57N 70°38' E 029°44'0 0.0
2017-Sep-28 16:27N 70°38' E 029°44'0 0.0
2017-Sep-28 15:57N 70°38' E 029°44'0 0.0
2017-Sep-28 15:27N 70°38' E 029°44'0 0.0
2017-Sep-28 14:57N 70°38' E 029°44'0 0.0
2017-Sep-28 14:27N 70°38' E 029°44'0 0.0
2017-Sep-28 13:57N 70°38' E 029°44'0 0.0
2017-Sep-28 13:27N 70°38' E 029°44'0 0.0
2017-Sep-28 12:57N 70°38' E 029°44'0 0.0
2017-Sep-28 12:21N 70°38' E 029°44'0 0.0
2017-Sep-28 11:51N 70°38' E 029°44'0 0.0
2017-Sep-28 11:27N 70°38' E 029°44'0 0.0
2017-Sep-28 10:57N 70°38' E 029°44'0 0.0
2017-Sep-28 10:27N 70°38' E 029°44'0 0.0
2017-Sep-28 09:57N 70°38' E 029°44'0 0.0
2017-Sep-28 09:27N 70°38' E 029°44'0 0.0
2017-Sep-28 08:57N 70°38' E 029°44'0 0.0
2017-Sep-28 08:15N 70°38' E 029°44'0 0.0
2017-Sep-28 07:57N 70°38' E 029°44'0 0.0
2017-Sep-28 07:27N 70°38' E 029°44'0 0.0
2017-Sep-28 06:57N 70°38' E 029°44'0 0.0
2017-Sep-28 06:27N 70°38' E 029°44'0 0.0
2017-Sep-28 05:51N 70°38' E 029°44'0 0.0
2017-Sep-28 05:27N 70°38' E 029°44'0 0.0
2017-Sep-28 04:57N 70°38' E 029°44'0 0.0
2017-Sep-28 04:27N 70°38' E 029°44'0 0.0
2017-Sep-28 03:57N 70°38' E 029°44'0 0.0
2017-Sep-28 03:21N 70°38' E 029°44'0 0.0
2017-Sep-28 02:57N 70°38' E 029°44'0 0.0
2017-Sep-28 02:21N 70°38' E 029°44'0 0.0
2017-Sep-28 01:57N 70°38' E 029°44'0 0.0
2017-Sep-28 01:27N 70°38' E 029°44'0 0.0
2017-Sep-28 00:57N 70°38' E 029°44'0 0.0
2017-Sep-28 00:09N 70°38' E 029°44'0 0.0
2017-Sep-27 23:57N 70°38' E 029°44'0 0.0
2017-Sep-27 23:27N 70°38' E 029°44'0 0.0
2017-Sep-27 22:57N 70°38' E 029°44'0 0.0
2017-Sep-27 22:27N 70°38' E 029°44'0 0.0
2017-Sep-27 21:57N 70°38' E 029°44'0 0.0
2017-Sep-27 21:27N 70°38' E 029°44'0 0.0
2017-Sep-27 20:45N 70°38' E 029°44'0 0.0
2017-Sep-27 20:27N 70°38' E 029°44'0 0.0
2017-Sep-27 19:57N 70°38' E 029°44'0 0.0
2017-Sep-27 19:27N 70°38' E 029°44'0 0.0
2017-Sep-27 18:57N 70°38' E 029°44'0 0.0
2017-Sep-27 18:21N 70°38' E 029°44'0 0.0
2017-Sep-27 17:57N 70°38' E 029°44'0 0.0
2017-Sep-27 17:21N 70°38' E 029°44'0 0.0
2017-Sep-27 16:57N 70°38' E 029°44'0 0.0
2017-Sep-27 16:21N 70°38' E 029°44'0 0.0
2017-Sep-27 15:57N 70°38' E 029°44'0 0.0
2017-Sep-27 15:21N 70°38' E 029°44'0 0.0
2017-Sep-27 14:57N 70°38' E 029°44'0 0.0
2017-Sep-27 14:27N 70°38' E 029°44'0 0.0
2017-Sep-27 13:57N 70°38' E 029°44'0 0.0
2017-Sep-27 13:27N 70°38' E 029°44'0 0.0
2017-Sep-27 12:57N 70°38' E 029°44'0 0.0
2017-Sep-27 12:27N 70°38' E 029°44'0 0.0
2017-Sep-27 11:57N 70°38' E 029°44'0 0.0
2017-Sep-27 11:21N 70°38' E 029°44'0 0.0
2017-Sep-27 10:57N 70°38' E 029°44'0 0.0
2017-Sep-27 10:27N 70°38' E 029°44'0 0.0
2017-Sep-27 09:57N 70°38' E 029°44'0 0.0
2017-Sep-27 09:27N 70°38' E 029°44'0 0.0
2017-Sep-27 08:57N 70°38' E 029°44'0 0.0
2017-Sep-27 08:27N 70°38' E 029°44'0 0.0
2017-Sep-27 07:57N 70°38' E 029°44'0 0.0
2017-Sep-27 07:27N 70°38' E 029°44'0 0.0
2017-Sep-27 06:57N 70°38' E 029°44'0 0.0
2017-Sep-27 06:27N 70°38' E 029°44'0 0.0
2017-Sep-27 05:57N 70°38' E 029°44'0 0.0
2017-Sep-27 05:27N 70°38' E 029°44'0 0.0
2017-Sep-27 04:57N 70°38' E 029°44'0 0.0
2017-Sep-27 04:27N 70°38' E 029°44'0 0.0
2017-Sep-27 03:57N 70°38' E 029°44'0 0.0
2017-Sep-27 03:21N 70°38' E 029°44'0 0.0
2017-Sep-27 02:57N 70°38' E 029°44'0 0.0
2017-Sep-27 02:27N 70°38' E 029°44'0 0.0
2017-Sep-27 01:57N 70°38' E 029°44'0 0.0
2017-Sep-27 01:27N 70°38' E 029°44'0 0.0
2017-Sep-27 00:57N 70°38' E 029°44'0 0.0
2017-Sep-27 00:27N 70°38' E 029°44'0 0.0
2017-Sep-26 23:57N 70°38' E 029°44'0 0.0
2017-Sep-26 23:27N 70°38' E 029°44'0 0.0
2017-Sep-26 22:57N 70°38' E 029°44'0 0.0
2017-Sep-26 22:27N 70°38' E 029°44'0 0.0
2017-Sep-26 21:57N 70°38' E 029°44'0 0.0
2017-Sep-26 21:27N 70°38' E 029°44'0 0.0
2017-Sep-26 20:57N 70°38' E 029°44'0 0.0
2017-Sep-26 20:27N 70°38' E 029°44'0 0.0
2017-Sep-26 19:57N 70°38' E 029°44'0 0.0
2017-Sep-26 19:27N 70°38' E 029°44'0 0.0
2017-Sep-26 18:57N 70°38' E 029°44'0 0.0
2017-Sep-26 18:21N 70°38' E 029°44'0 0.0
2017-Sep-26 17:57N 70°38' E 029°44'0 0.0
2017-Sep-26 17:27N 70°38' E 029°44'0 0.0
2017-Sep-26 16:57N 70°38' E 029°44'0 0.0
2017-Sep-26 16:27N 70°38' E 029°44'0 0.0
2017-Sep-26 15:57N 70°38' E 029°44'0 0.0
2017-Sep-26 15:27N 70°38' E 029°44'0 0.0
2017-Sep-26 14:57N 70°38' E 029°44'0 0.0
2017-Sep-26 14:27N 70°38' E 029°44'0 0.0
2017-Sep-26 13:57N 70°38' E 029°44'0 0.0
2017-Sep-26 13:27N 70°38' E 029°44'0 0.0
2017-Sep-26 12:57N 70°38' E 029°44'0 0.0
2017-Sep-26 12:27N 70°38' E 029°44'0 0.0
2017-Sep-26 11:57N 70°38' E 029°44'0 0.0
2017-Sep-26 11:21N 70°38' E 029°44'0 0.0
2017-Sep-26 10:57N 70°38' E 029°44'0 0.0
2017-Sep-26 10:27N 70°38' E 029°44'0 0.0
2017-Sep-26 09:57N 70°38' E 029°44'0 0.0
2017-Sep-26 09:21N 70°38' E 029°44'0 0.0
2017-Sep-26 08:57N 70°38' E 029°44'0 0.0
2017-Sep-26 08:27N 70°38' E 029°44'0 0.0
2017-Sep-26 07:57N 70°38' E 029°44'0 0.0
2017-Sep-26 07:27N 70°38' E 029°44'0 0.0
2017-Sep-26 06:57N 70°38' E 029°44'0 0.0
2017-Sep-26 06:21N 70°38' E 029°44'0 0.0
2017-Sep-26 05:57N 70°38' E 029°44'0 0.0
2017-Sep-26 05:27N 70°38' E 029°44'0 0.0
2017-Sep-26 04:57N 70°38' E 029°44'0 0.0
2017-Sep-26 04:27N 70°38' E 029°44'0 0.0
2017-Sep-26 03:57N 70°38' E 029°44'0 0.0
2017-Sep-26 03:27N 70°38' E 029°44'0 0.0
2017-Sep-26 02:57N 70°38' E 029°44'0 0.0
2017-Sep-26 02:27N 70°38' E 029°44'0 0.0
2017-Sep-26 01:57N 70°38' E 029°44'0 0.0
2017-Sep-26 01:27N 70°38' E 029°44'  

Dump ship's entire track history